createdAt,value
2018-05-25T00:01:00.001Z,0.00
2018-05-25T00:02:00.244Z,0.00
2018-05-25T00:03:00.488Z,0.00
2018-05-25T00:04:00.730Z,0.00
2018-05-25T00:05:00.973Z,0.00
2018-05-25T00:06:01.218Z,0.00
2018-05-25T00:07:01.461Z,0.00
2018-05-25T00:08:01.709Z,0.00
2018-05-25T00:09:01.948Z,0.00
2018-05-25T00:10:02.191Z,0.00
2018-05-25T00:11:02.435Z,0.00
2018-05-25T00:12:02.680Z,0.00
2018-05-25T00:13:02.924Z,0.00
2018-05-25T00:14:03.168Z,0.00
2018-05-25T00:15:03.410Z,0.00
2018-05-25T00:16:03.656Z,0.00
2018-05-25T00:17:03.895Z,0.00
2018-05-25T00:18:04.141Z,0.00
2018-05-25T00:19:04.384Z,0.00
2018-05-25T00:20:04.623Z,0.00
2018-05-25T00:21:04.869Z,0.00
2018-05-25T00:22:05.109Z,0.00
2018-05-25T00:23:05.351Z,0.00
2018-05-25T00:24:05.593Z,0.00
2018-05-25T00:25:05.837Z,0.00
2018-05-25T00:26:06.084Z,0.00
2018-05-25T00:27:06.324Z,0.00
2018-05-25T00:28:06.566Z,0.00
2018-05-25T00:29:06.812Z,0.00
2018-05-25T00:30:07.054Z,0.00
2018-05-25T00:31:07.296Z,0.00
2018-05-25T00:32:07.541Z,0.00
2018-05-25T00:33:07.786Z,0.00
2018-05-25T00:34:08.026Z,0.00
2018-05-25T00:35:08.269Z,0.00
2018-05-25T00:36:08.511Z,0.00
2018-05-25T00:37:08.759Z,0.00
2018-05-25T00:38:08.997Z,0.00
2018-05-25T00:39:09.238Z,0.00
2018-05-25T00:40:09.482Z,0.00
2018-05-25T00:41:09.725Z,0.00
2018-05-25T00:42:09.970Z,0.00
2018-05-25T00:43:10.211Z,0.00
2018-05-25T00:44:10.454Z,0.00
2018-05-25T00:45:10.697Z,0.00
2018-05-25T00:46:10.938Z,0.00
2018-05-25T00:47:11.183Z,0.00
2018-05-25T00:48:11.427Z,0.00
2018-05-25T00:49:11.669Z,0.00
2018-05-25T00:50:11.913Z,0.00
2018-05-25T00:51:12.156Z,0.00
2018-05-25T00:52:12.401Z,0.00
2018-05-25T00:53:12.645Z,0.00
2018-05-25T00:54:12.887Z,0.00
2018-05-25T00:55:13.129Z,0.00
2018-05-25T00:56:13.373Z,0.00
2018-05-25T00:57:13.616Z,0.00
2018-05-25T00:58:13.859Z,0.00
2018-05-25T00:59:14.102Z,0.00
2018-05-25T01:00:14.345Z,0.00
2018-05-25T01:01:14.588Z,0.00
2018-05-25T01:02:14.833Z,0.00
2018-05-25T01:03:15.075Z,0.00
2018-05-25T01:04:15.323Z,0.00
2018-05-25T01:05:15.560Z,0.00
2018-05-25T01:06:15.805Z,0.00
2018-05-25T01:07:16.048Z,0.00
2018-05-25T01:08:16.294Z,0.00
2018-05-25T01:09:16.537Z,0.00
2018-05-25T01:10:16.784Z,0.00
2018-05-25T01:11:17.026Z,0.00
2018-05-25T01:12:17.271Z,0.00
2018-05-25T01:13:17.513Z,0.00
2018-05-25T01:14:17.756Z,0.00
2018-05-25T01:15:18.001Z,0.00
2018-05-25T01:16:18.242Z,0.00
2018-05-25T01:17:18.489Z,0.00
2018-05-25T01:18:18.730Z,0.00
2018-05-25T01:19:18.973Z,0.00
2018-05-25T01:20:19.217Z,0.00
2018-05-25T01:21:19.460Z,0.00
2018-05-25T01:22:19.702Z,0.00
2018-05-25T01:23:19.945Z,0.00
2018-05-25T01:24:20.188Z,0.00
2018-05-25T01:25:20.430Z,0.00
2018-05-25T01:26:20.675Z,0.00
2018-05-25T01:27:20.921Z,0.00
2018-05-25T01:28:21.163Z,0.00
2018-05-25T01:29:21.406Z,0.00
2018-05-25T01:30:21.649Z,0.00
2018-05-25T01:31:21.892Z,0.00
2018-05-25T01:32:22.135Z,0.00
2018-05-25T01:33:22.378Z,0.00
2018-05-25T01:34:22.622Z,0.00
2018-05-25T01:35:22.865Z,0.00
2018-05-25T01:36:23.109Z,0.00
2018-05-25T01:37:23.353Z,0.00
2018-05-25T01:38:23.597Z,0.00
2018-05-25T01:39:23.840Z,0.00
2018-05-25T01:40:24.085Z,0.00
2018-05-25T01:41:24.328Z,0.00
2018-05-25T01:42:24.571Z,0.00
2018-05-25T01:43:24.814Z,0.00
2018-05-25T01:44:25.058Z,0.00
2018-05-25T01:45:25.300Z,0.00
2018-05-25T01:46:25.543Z,0.00
2018-05-25T01:47:25.789Z,0.00
2018-05-25T01:48:26.031Z,0.00
2018-05-25T01:49:26.280Z,0.00
2018-05-25T01:50:26.517Z,0.00
2018-05-25T01:51:26.761Z,0.00
2018-05-25T01:52:27.009Z,0.00
2018-05-25T01:53:27.245Z,0.00
2018-05-25T01:54:27.491Z,0.00
2018-05-25T01:55:27.734Z,0.00
2018-05-25T01:56:27.977Z,0.00
2018-05-25T01:57:28.219Z,0.00
2018-05-25T01:58:28.462Z,0.00
2018-05-25T01:59:28.705Z,0.00
2018-05-25T02:00:28.948Z,0.00
2018-05-25T02:01:29.192Z,0.00
2018-05-25T02:02:29.435Z,0.00
2018-05-25T02:03:29.678Z,0.00
2018-05-25T02:04:29.922Z,0.00
2018-05-25T02:05:30.164Z,0.00
2018-05-25T02:06:30.405Z,0.00
2018-05-25T02:07:30.650Z,0.00
2018-05-25T02:08:30.893Z,0.00
2018-05-25T02:09:31.135Z,0.00
2018-05-25T02:10:31.379Z,0.00
2018-05-25T02:11:31.619Z,0.00
2018-05-25T02:12:31.862Z,0.00
2018-05-25T02:13:32.105Z,0.00
2018-05-25T02:14:32.357Z,0.00
2018-05-25T02:15:32.594Z,0.00
2018-05-25T02:16:32.837Z,0.00
2018-05-25T02:17:33.081Z,0.00
2018-05-25T02:18:33.323Z,0.00
2018-05-25T02:19:33.567Z,0.00
2018-05-25T02:20:33.810Z,0.00
2018-05-25T02:21:34.053Z,0.00
2018-05-25T02:22:34.296Z,0.00
2018-05-25T02:23:34.538Z,0.00
2018-05-25T02:24:34.781Z,0.00
2018-05-25T02:25:35.022Z,0.00
2018-05-25T02:26:35.267Z,0.00
2018-05-25T02:27:35.511Z,0.00
2018-05-25T02:28:35.753Z,0.00
2018-05-25T02:29:35.997Z,0.00
2018-05-25T02:30:36.240Z,0.00
2018-05-25T02:31:36.484Z,0.00
2018-05-25T02:32:36.731Z,0.00
2018-05-25T02:33:36.971Z,0.00
2018-05-25T02:34:37.215Z,0.00
2018-05-25T02:35:37.458Z,0.00
2018-05-25T02:36:37.699Z,0.00
2018-05-25T02:37:37.944Z,0.00
2018-05-25T02:38:38.214Z,0.00
2018-05-25T02:39:38.429Z,0.00
2018-05-25T02:40:38.672Z,0.00
2018-05-25T02:41:38.914Z,0.00
2018-05-25T02:42:39.170Z,4.00
2018-05-25T02:43:39.402Z,4.00
2018-05-25T02:44:39.646Z,0.00
2018-05-25T02:45:39.892Z,0.00
2018-05-25T02:46:40.131Z,4.00
2018-05-25T02:47:40.373Z,4.00
2018-05-25T02:48:40.617Z,0.00
2018-05-25T02:49:40.859Z,4.00
2018-05-25T02:50:41.104Z,4.00
2018-05-25T02:51:41.349Z,4.00
2018-05-25T02:52:41.592Z,4.00
2018-05-25T02:53:41.839Z,8.00
2018-05-25T02:54:42.081Z,8.00
2018-05-25T02:55:42.324Z,12.00
2018-05-25T02:56:42.565Z,12.00
2018-05-25T02:57:42.810Z,12.00
2018-05-25T02:58:43.052Z,16.00
2018-05-25T02:59:43.291Z,16.00
2018-05-25T03:00:43.540Z,20.00
2018-05-25T03:01:43.784Z,24.00
2018-05-25T03:02:44.026Z,24.00
2018-05-25T03:03:44.268Z,28.00
2018-05-25T03:04:44.511Z,32.00
2018-05-25T03:05:44.754Z,40.00
2018-05-25T03:06:45.023Z,44.00
2018-05-25T03:07:45.246Z,56.00
2018-05-25T03:08:45.484Z,64.00
2018-05-25T03:09:45.728Z,68.00
2018-05-25T03:10:45.972Z,84.00
2018-05-25T03:11:46.215Z,92.00
2018-05-25T03:12:46.460Z,108.00
2018-05-25T03:13:46.702Z,116.00
2018-05-25T03:14:46.943Z,136.00
2018-05-25T03:15:47.188Z,148.00
2018-05-25T03:16:47.431Z,168.00
2018-05-25T03:17:47.673Z,184.00
2018-05-25T03:18:47.918Z,204.00
2018-05-25T03:19:48.162Z,220.00
2018-05-25T03:20:48.406Z,236.00
2018-05-25T03:21:48.649Z,252.00
2018-05-25T03:22:48.891Z,268.00
2018-05-25T03:23:49.137Z,284.00
2018-05-25T03:24:49.381Z,300.00
2018-05-25T03:25:49.624Z,324.00
2018-05-25T03:26:49.880Z,348.00
2018-05-25T03:27:50.114Z,376.00
2018-05-25T03:28:50.359Z,400.00
2018-05-25T03:29:50.602Z,436.00
2018-05-25T03:30:50.846Z,468.00
2018-05-25T03:31:51.089Z,500.00
2018-05-25T03:32:51.331Z,532.00
2018-05-25T03:33:51.576Z,556.00
2018-05-25T03:34:51.821Z,580.00
2018-05-25T03:35:52.068Z,604.00
2018-05-25T03:36:52.312Z,628.00
2018-05-25T03:37:52.556Z,640.00
2018-05-25T03:38:52.799Z,652.00
2018-05-25T03:39:53.044Z,676.00
2018-05-25T03:40:53.287Z,716.00
2018-05-25T03:41:53.529Z,760.00
2018-05-25T03:42:53.774Z,808.00
2018-05-25T03:43:54.017Z,848.00
2018-05-25T03:44:54.263Z,888.00
2018-05-25T03:45:54.503Z,924.00
2018-05-25T03:46:54.748Z,972.00
2018-05-25T03:47:54.992Z,1020.00
2018-05-25T03:48:55.234Z,1060.00
2018-05-25T03:49:55.477Z,1100.00
2018-05-25T03:50:55.721Z,1136.00
2018-05-25T03:51:55.963Z,1176.00
2018-05-25T03:52:56.205Z,1216.00
2018-05-25T03:53:56.448Z,1276.00
2018-05-25T03:54:56.691Z,1344.00
2018-05-25T03:55:56.936Z,1412.00
2018-05-25T03:56:57.180Z,1484.00
2018-05-25T03:57:57.425Z,1544.00
2018-05-25T03:58:57.667Z,1612.00
2018-05-25T03:59:57.910Z,1680.00
2018-05-25T04:00:58.154Z,1740.00
2018-05-25T04:01:58.397Z,1788.00
2018-05-25T04:02:58.643Z,1840.00
2018-05-25T04:03:58.886Z,1888.00
2018-05-25T04:04:59.115Z,1920.00
2018-05-25T04:05:59.359Z,1924.00
2018-05-25T04:06:59.603Z,1924.00
2018-05-25T04:07:59.847Z,1940.00
2018-05-25T04:09:00.092Z,1944.00
2018-05-25T04:10:00.333Z,1948.00
2018-05-25T04:11:00.577Z,1952.00
2018-05-25T04:12:00.823Z,1960.00
2018-05-25T04:13:01.064Z,1976.00
2018-05-25T04:14:01.307Z,2004.00
2018-05-25T04:15:01.551Z,2024.00
2018-05-25T04:16:01.798Z,2040.00
2018-05-25T04:17:02.042Z,2016.00
2018-05-25T04:18:02.285Z,2024.00
2018-05-25T04:19:02.532Z,2060.00
2018-05-25T04:20:02.779Z,2092.00
2018-05-25T04:21:03.019Z,2120.00
2018-05-25T04:22:03.263Z,2136.00
2018-05-25T04:23:03.506Z,2156.00
2018-05-25T04:24:03.750Z,2180.00
2018-05-25T04:25:03.993Z,2196.00
2018-05-25T04:26:04.257Z,2212.00
2018-05-25T04:27:04.483Z,2228.00
2018-05-25T04:28:04.729Z,2248.00
2018-05-25T04:29:04.972Z,2272.00
2018-05-25T04:30:05.214Z,2300.00
2018-05-25T04:31:05.463Z,2340.00
2018-05-25T04:32:05.704Z,2380.00
2018-05-25T04:33:05.948Z,2432.00
2018-05-25T04:34:06.195Z,2492.00
2018-05-25T04:35:06.438Z,2552.00
2018-05-25T04:36:06.674Z,2612.00
2018-05-25T04:37:06.938Z,2672.00
2018-05-25T04:38:07.181Z,2728.00
2018-05-25T04:39:07.424Z,2780.00
2018-05-25T04:40:07.669Z,2824.00
2018-05-25T04:41:07.912Z,2860.00
2018-05-25T04:42:08.154Z,2880.00
2018-05-25T04:43:08.400Z,2896.00
2018-05-25T04:44:08.643Z,2912.00
2018-05-25T04:45:08.886Z,2924.00
2018-05-25T04:46:09.135Z,2928.00
2018-05-25T04:47:09.375Z,2936.00
2018-05-25T04:48:09.619Z,2952.00
2018-05-25T04:49:09.862Z,2980.00
2018-05-25T04:50:10.106Z,3012.00
2018-05-25T04:51:10.349Z,3048.00
2018-05-25T04:52:10.593Z,3092.00
2018-05-25T04:53:10.838Z,3152.00
2018-05-25T04:54:11.081Z,3256.00
2018-05-25T04:55:11.327Z,3364.00
2018-05-25T04:56:11.571Z,3484.00
2018-05-25T04:57:11.814Z,3600.00
2018-05-25T04:58:12.059Z,3724.00
2018-05-25T04:59:12.304Z,3836.00
2018-05-25T05:00:12.545Z,3956.00
2018-05-25T05:01:12.792Z,4068.00
2018-05-25T05:02:13.037Z,4168.00
2018-05-25T05:03:13.280Z,4268.00
2018-05-25T05:04:13.524Z,4348.00
2018-05-25T05:05:13.773Z,4412.00
2018-05-25T05:06:14.013Z,4476.00
2018-05-25T05:07:14.255Z,4552.00
2018-05-25T05:08:14.500Z,4636.00
2018-05-25T05:09:14.744Z,4720.00
2018-05-25T05:10:14.990Z,4796.00
2018-05-25T05:11:15.239Z,4856.00
2018-05-25T05:12:15.477Z,4928.00
2018-05-25T05:13:15.722Z,5028.00
2018-05-25T05:14:15.968Z,5140.00
2018-05-25T05:15:16.210Z,5244.00
2018-05-25T05:16:16.454Z,5320.00
2018-05-25T05:17:16.697Z,5364.00
2018-05-25T05:18:16.943Z,5364.00
2018-05-25T05:19:17.187Z,5336.00
2018-05-25T05:20:17.429Z,5296.00
2018-05-25T05:21:17.675Z,5268.00
2018-05-25T05:22:17.920Z,5256.00
2018-05-25T05:23:18.164Z,5268.00
2018-05-25T05:24:18.409Z,5296.00
2018-05-25T05:25:18.653Z,5348.00
2018-05-25T05:26:18.901Z,5420.00
2018-05-25T05:27:19.143Z,5504.00
2018-05-25T05:28:19.388Z,5612.00
2018-05-25T05:29:19.632Z,5720.00
2018-05-25T05:30:19.877Z,5848.00
2018-05-25T05:31:20.124Z,5980.00
2018-05-25T05:32:20.365Z,6108.00
2018-05-25T05:33:20.609Z,6228.00
2018-05-25T05:34:20.853Z,6328.00
2018-05-25T05:35:21.102Z,6408.00
2018-05-25T05:36:21.344Z,6464.00
2018-05-25T05:37:21.588Z,6504.00
2018-05-25T05:38:21.832Z,6536.00
2018-05-25T05:39:22.078Z,6564.00
2018-05-25T05:40:22.323Z,6588.00
2018-05-25T05:41:22.566Z,6620.00
2018-05-25T05:42:22.811Z,6648.00
2018-05-25T05:43:23.056Z,6692.00
2018-05-25T05:44:23.301Z,6744.00
2018-05-25T05:45:23.546Z,6800.00
2018-05-25T05:46:23.792Z,6876.00
2018-05-25T05:47:24.037Z,6956.00
2018-05-25T05:48:24.283Z,7052.00
2018-05-25T05:49:24.530Z,7168.00
2018-05-25T05:50:24.771Z,7324.00
2018-05-25T05:51:25.018Z,7524.00
2018-05-25T05:52:25.265Z,7764.00
2018-05-25T05:53:25.514Z,8020.00
2018-05-25T05:54:25.755Z,8316.00
2018-05-25T05:55:26.002Z,8600.00
2018-05-25T05:56:26.247Z,8852.00
2018-05-25T05:57:26.492Z,9036.00
2018-05-25T05:58:26.738Z,9196.00
2018-05-25T05:59:26.981Z,9304.00
2018-05-25T06:00:27.229Z,9388.00
2018-05-25T06:01:27.475Z,9464.00
2018-05-25T06:02:27.720Z,9540.00
2018-05-25T06:03:27.967Z,9632.00
2018-05-25T06:04:28.272Z,9748.00
2018-05-25T06:05:28.459Z,9872.00
2018-05-25T06:06:28.704Z,10000.00
2018-05-25T06:07:28.952Z,10124.00
2018-05-25T06:08:29.197Z,10220.00
2018-05-25T06:09:29.444Z,10300.00
2018-05-25T06:10:29.689Z,10340.00
2018-05-25T06:11:29.934Z,10384.00
2018-05-25T06:12:30.184Z,10460.00
2018-05-25T06:13:30.431Z,10588.00
2018-05-25T06:14:30.675Z,10708.00
2018-05-25T06:15:30.922Z,10832.00
2018-05-25T06:16:31.169Z,10948.00
2018-05-25T06:17:31.415Z,11096.00
2018-05-25T06:18:31.660Z,11284.00
2018-05-25T06:19:31.907Z,11484.00
2018-05-25T06:20:32.150Z,11676.00
2018-05-25T06:21:32.401Z,11800.00
2018-05-25T06:22:32.660Z,11864.00
2018-05-25T06:23:32.891Z,11892.00
2018-05-25T06:24:33.142Z,11876.00
2018-05-25T06:25:33.389Z,11804.00
2018-05-25T06:26:33.640Z,11752.00
2018-05-25T06:27:33.883Z,11672.00
2018-05-25T06:28:34.131Z,11620.00
2018-05-25T06:29:34.381Z,11856.00
2018-05-25T06:30:34.622Z,12068.00
2018-05-25T06:31:34.869Z,12256.00
2018-05-25T06:32:35.117Z,12424.00
2018-05-25T06:33:35.364Z,12604.00
2018-05-25T06:34:35.611Z,12740.00
2018-05-25T06:35:35.855Z,12784.00
2018-05-25T06:36:36.103Z,12772.00
2018-05-25T06:37:36.351Z,12716.00
2018-05-25T06:38:36.597Z,12520.00
2018-05-25T06:39:36.848Z,12344.00
2018-05-25T06:40:37.091Z,12376.00
2018-05-25T06:41:37.338Z,12484.00
2018-05-25T06:42:37.590Z,12660.00
2018-05-25T06:43:37.836Z,12868.00
2018-05-25T06:44:38.084Z,13208.00
2018-05-25T06:45:38.328Z,13680.00
2018-05-25T06:46:38.576Z,14432.00
2018-05-25T06:47:38.822Z,15672.00
2018-05-25T06:48:39.070Z,16320.00
2018-05-25T06:49:39.316Z,16384.00
2018-05-25T06:50:39.575Z,15460.00
2018-05-25T06:51:39.812Z,14728.00
2018-05-25T06:52:40.059Z,14236.00
2018-05-25T06:53:40.308Z,14088.00
2018-05-25T06:54:40.553Z,14544.00
2018-05-25T06:55:40.801Z,14560.00
2018-05-25T06:56:41.049Z,14288.00
2018-05-25T06:57:41.296Z,14200.00
2018-05-25T06:58:41.544Z,13836.00
2018-05-25T06:59:41.796Z,13308.00
2018-05-25T07:00:42.041Z,13120.00
2018-05-25T07:01:42.291Z,13020.00
2018-05-25T07:02:42.536Z,12720.00
2018-05-25T07:03:42.784Z,12688.00
2018-05-25T07:04:43.031Z,13220.00
2018-05-25T07:05:43.278Z,14232.00
2018-05-25T07:06:43.530Z,14308.00
2018-05-25T07:07:43.773Z,13760.00
2018-05-25T07:08:44.021Z,13620.00
2018-05-25T07:09:44.266Z,13480.00
2018-05-25T07:10:44.515Z,13464.00
2018-05-25T07:11:44.761Z,13768.00
2018-05-25T07:12:45.009Z,14116.00
2018-05-25T07:13:45.257Z,14096.00
2018-05-25T07:14:45.503Z,13732.00
2018-05-25T07:15:45.752Z,13496.00
2018-05-25T07:16:46.001Z,13664.00
2018-05-25T07:17:46.263Z,13828.00
2018-05-25T07:18:46.494Z,13676.00
2018-05-25T07:19:46.746Z,13836.00
2018-05-25T07:20:46.994Z,14320.00
2018-05-25T07:21:47.243Z,14704.00
2018-05-25T07:22:47.490Z,14920.00
2018-05-25T07:23:47.738Z,16000.00
2018-05-25T07:24:47.989Z,16964.00
2018-05-25T07:25:48.237Z,17376.00
2018-05-25T07:26:48.500Z,16780.00
2018-05-25T07:27:48.733Z,16432.00
2018-05-25T07:28:48.976Z,15816.00
2018-05-25T07:29:49.241Z,15380.00
2018-05-25T07:30:49.491Z,14896.00
2018-05-25T07:31:49.737Z,14572.00
2018-05-25T07:32:49.987Z,14888.00
2018-05-25T07:33:50.236Z,15664.00
2018-05-25T07:34:50.488Z,16204.00
2018-05-25T07:35:50.735Z,16828.00
2018-05-25T07:36:50.984Z,16600.00
2018-05-25T07:37:51.232Z,17312.00
2018-05-25T07:38:51.480Z,18944.00
2018-05-25T07:39:51.730Z,19744.00
2018-05-25T07:40:51.978Z,18976.00
2018-05-25T07:41:52.224Z,18560.00
2018-05-25T07:42:52.474Z,18528.00
2018-05-25T07:43:52.722Z,19104.00
2018-05-25T07:44:52.971Z,19392.00
2018-05-25T07:46:00.849Z,19904.00
2018-05-25T07:46:53.526Z,18240.00
2018-05-25T07:47:53.776Z,17792.00
2018-05-25T07:48:54.024Z,18720.00
2018-05-25T07:49:54.272Z,18560.00
2018-05-25T07:50:54.522Z,18688.00
2018-05-25T07:51:54.771Z,16896.00
2018-05-25T07:52:55.021Z,19040.00
2018-05-25T07:53:55.274Z,17380.00
2018-05-25T07:54:55.523Z,19424.00
2018-05-25T07:55:55.775Z,18688.00
2018-05-25T07:56:56.024Z,19584.00
2018-05-25T07:57:56.274Z,18976.00
2018-05-25T07:58:56.522Z,17164.00
2018-05-25T07:59:56.771Z,17080.00
2018-05-25T08:00:57.021Z,18208.00
2018-05-25T08:01:57.271Z,19328.00
2018-05-25T08:02:57.523Z,19232.00
2018-05-25T08:03:57.772Z,17720.00
2018-05-25T08:04:58.022Z,15680.00
2018-05-25T08:05:58.274Z,15500.00
2018-05-25T08:06:58.527Z,17276.00
2018-05-25T08:07:58.776Z,22432.00
2018-05-25T08:08:59.024Z,21504.00
2018-05-25T08:09:59.273Z,21536.00
2018-05-25T08:10:59.531Z,24256.00
2018-05-25T08:11:59.831Z,23200.00
2018-05-25T08:13:00.028Z,22720.00
2018-05-25T08:14:00.277Z,23904.00
2018-05-25T08:15:00.529Z,25152.00
2018-05-25T08:16:00.780Z,23840.00
2018-05-25T08:17:01.027Z,24320.00
2018-05-25T08:18:01.277Z,26880.00
2018-05-25T08:19:01.524Z,24800.00
2018-05-25T08:20:01.774Z,26144.00
2018-05-25T08:21:02.032Z,23968.00
2018-05-25T08:22:02.350Z,20672.00
2018-05-25T08:23:02.533Z,19744.00
2018-05-25T08:24:02.783Z,20672.00
2018-05-25T08:25:03.033Z,21696.00
2018-05-25T08:26:03.284Z,19552.00
2018-05-25T08:27:03.537Z,17760.00
2018-05-25T08:28:03.788Z,16768.00
2018-05-25T08:29:04.039Z,17504.00
2018-05-25T08:30:04.290Z,18208.00
2018-05-25T08:31:04.540Z,18944.00
2018-05-25T08:32:04.795Z,19392.00
2018-05-25T08:33:05.048Z,21280.00
2018-05-25T08:34:05.305Z,24608.00
2018-05-25T08:35:05.546Z,28000.00
2018-05-25T08:36:05.795Z,29120.00
2018-05-25T08:37:06.047Z,27488.00
2018-05-25T08:38:06.297Z,25632.00
2018-05-25T08:39:06.547Z,23776.00
2018-05-25T08:40:06.797Z,22464.00
2018-05-25T08:41:07.047Z,21152.00
2018-05-25T08:42:07.298Z,19872.00
2018-05-25T08:43:07.551Z,18656.00
2018-05-25T08:44:07.801Z,17920.00
2018-05-25T08:45:08.049Z,17856.00
2018-05-25T08:46:08.299Z,18592.00
2018-05-25T08:47:08.548Z,19488.00
2018-05-25T08:48:08.798Z,19520.00
2018-05-25T08:49:09.049Z,19296.00
2018-05-25T08:50:09.299Z,19296.00
2018-05-25T08:51:09.549Z,19488.00
2018-05-25T08:52:09.800Z,20320.00
2018-05-25T08:53:10.052Z,21344.00
2018-05-25T08:54:10.300Z,22304.00
2018-05-25T08:55:10.561Z,23904.00
2018-05-25T08:56:10.801Z,26208.00
2018-05-25T08:57:11.050Z,29632.00
2018-05-25T08:58:11.506Z,28736.00
2018-05-25T08:59:11.550Z,43392.00
2018-05-25T09:00:11.798Z,46688.00
2018-05-25T09:01:12.062Z,42944.00
2018-05-25T09:02:12.298Z,50112.00
2018-05-25T09:03:12.548Z,53856.00
2018-05-25T09:04:12.801Z,54528.00
2018-05-25T09:05:13.052Z,55104.00
2018-05-25T09:06:13.316Z,54688.00
2018-05-25T09:07:13.567Z,51776.00
2018-05-25T09:08:13.819Z,51392.00
2018-05-25T09:09:14.071Z,54912.00
2018-05-25T09:10:14.323Z,55072.00
2018-05-25T09:11:14.576Z,55936.00
2018-05-25T09:12:14.827Z,56544.00
2018-05-25T09:13:15.079Z,56768.00
2018-05-25T09:14:15.334Z,56544.00
2018-05-25T09:15:15.586Z,57600.00
2018-05-25T09:16:15.839Z,57024.00
2018-05-25T09:17:16.092Z,57056.00
2018-05-25T09:18:16.346Z,54944.00
2018-05-25T09:19:16.603Z,54464.00
2018-05-25T09:20:16.854Z,56608.00
2018-05-25T09:21:17.109Z,56768.00
2018-05-25T09:22:17.364Z,54912.00
2018-05-25T09:23:17.622Z,53280.00
2018-05-25T09:24:17.876Z,54048.00
2018-05-25T09:25:18.162Z,55936.00
2018-05-25T09:26:18.419Z,57728.00
2018-05-25T09:27:18.675Z,58912.00
2018-05-25T09:28:18.932Z,60448.00
2018-05-25T09:29:19.185Z,60064.00
2018-05-25T09:30:19.440Z,58176.00
2018-05-25T09:31:19.695Z,58272.00
2018-05-25T09:32:19.948Z,59200.00
2018-05-25T09:33:20.202Z,59936.00
2018-05-25T09:34:20.457Z,60256.00
2018-05-25T09:35:20.711Z,60928.00
2018-05-25T09:36:20.997Z,61024.00
2018-05-25T09:37:21.218Z,63424.00
2018-05-25T09:38:21.472Z,64224.00
2018-05-25T09:39:21.729Z,63904.00
2018-05-25T09:40:21.986Z,64128.00
2018-05-25T09:41:22.236Z,65728.00
2018-05-25T09:42:22.490Z,64832.00
2018-05-25T09:43:22.754Z,58368.00
2018-05-25T09:44:23.001Z,41824.00
2018-05-25T09:45:23.258Z,43008.00
2018-05-25T09:46:23.516Z,38720.00
2018-05-25T09:47:23.764Z,32608.00
2018-05-25T09:48:24.020Z,29504.00
2018-05-25T09:49:24.272Z,28288.00
2018-05-25T09:50:24.529Z,27968.00
2018-05-25T09:51:24.783Z,29056.00
2018-05-25T09:52:25.037Z,30976.00
2018-05-25T09:53:25.296Z,37056.00
2018-05-25T09:54:33.183Z,84512.00
2018-05-25T09:55:25.864Z,44416.00
2018-05-25T09:56:26.117Z,55776.00
2018-05-25T09:57:26.371Z,46496.00
2018-05-25T09:58:26.625Z,55104.00
2018-05-25T09:59:26.884Z,72736.00
2018-05-25T10:00:27.133Z,78912.00
2018-05-25T10:01:27.391Z,80448.00
2018-05-25T10:02:27.642Z,79168.00
2018-05-25T10:03:27.897Z,56576.00
2018-05-25T10:04:28.153Z,76640.00
2018-05-25T10:05:28.409Z,78304.00
2018-05-25T10:06:28.665Z,74784.00
2018-05-25T10:07:28.922Z,66656.00
2018-05-25T10:08:29.175Z,32256.00
2018-05-25T10:09:29.431Z,56416.00
2018-05-25T10:10:29.687Z,85248.00
2018-05-25T10:11:29.940Z,85056.00
2018-05-25T10:12:30.196Z,82656.00
2018-05-25T10:13:30.451Z,79168.00
2018-05-25T10:14:30.706Z,77664.00
2018-05-25T10:15:30.962Z,79520.00
2018-05-25T10:16:31.218Z,79456.00
2018-05-25T10:17:31.482Z,78080.00
2018-05-25T10:18:31.728Z,79200.00
2018-05-25T10:19:31.985Z,57152.00
2018-05-25T10:20:32.241Z,37472.00
2018-05-25T10:21:32.496Z,64992.00
2018-05-25T10:22:32.752Z,51136.00
2018-05-25T10:23:33.011Z,76448.00
2018-05-25T10:24:33.265Z,86528.00
2018-05-25T10:25:33.523Z,80352.00
2018-05-25T10:26:33.781Z,81856.00
2018-05-25T10:27:34.035Z,60192.00
2018-05-25T10:28:34.302Z,81920.00
2018-05-25T10:29:34.550Z,80992.00
2018-05-25T10:30:34.807Z,78944.00
2018-05-25T10:31:35.063Z,61696.00
2018-05-25T10:32:35.319Z,39712.00
2018-05-25T10:33:35.583Z,46592.00
2018-05-25T10:34:35.834Z,63200.00
2018-05-25T10:35:36.090Z,63840.00
2018-05-25T10:36:36.347Z,74560.00
2018-05-25T10:37:36.603Z,86944.00
2018-05-25T10:38:36.860Z,88128.00
2018-05-25T10:39:37.117Z,86464.00
2018-05-25T10:40:37.372Z,85984.00
2018-05-25T10:41:37.628Z,84704.00
2018-05-25T10:42:37.886Z,83616.00
2018-05-25T10:43:38.141Z,83232.00
2018-05-25T10:44:38.398Z,83456.00
2018-05-25T10:45:38.671Z,81152.00
2018-05-25T10:46:38.915Z,79744.00
2018-05-25T10:47:39.174Z,79936.00
2018-05-25T10:48:39.435Z,79392.00
2018-05-25T10:49:39.691Z,79552.00
2018-05-25T10:50:39.949Z,81376.00
2018-05-25T10:51:40.205Z,82880.00
2018-05-25T10:52:40.466Z,28384.00
2018-05-25T10:53:40.722Z,30432.00
2018-05-25T10:54:40.979Z,30624.00
2018-05-25T10:55:41.234Z,30560.00
2018-05-25T10:56:41.491Z,32416.00
2018-05-25T10:57:41.749Z,34912.00
2018-05-25T10:58:42.006Z,44192.00
2018-05-25T10:59:42.264Z,63392.00
2018-05-25T11:00:42.519Z,51968.00
2018-05-25T11:01:42.781Z,82496.00
2018-05-25T11:02:43.034Z,90752.00
2018-05-25T11:03:43.329Z,89696.00
2018-05-25T11:04:43.555Z,94176.00
2018-05-25T11:05:43.807Z,37152.00
2018-05-25T11:06:44.064Z,34048.00
2018-05-25T11:07:44.322Z,31264.00
2018-05-25T11:08:44.576Z,30848.00
2018-05-25T11:09:44.839Z,32352.00
2018-05-25T11:10:45.100Z,34848.00
2018-05-25T11:11:45.350Z,44960.00
2018-05-25T11:12:45.606Z,54272.00
2018-05-25T11:13:45.864Z,70368.00
2018-05-25T11:14:46.122Z,38496.00
2018-05-25T11:15:46.381Z,34432.00
2018-05-25T11:16:46.637Z,43104.00
2018-05-25T11:17:46.894Z,93952.00
2018-05-25T11:18:47.150Z,56704.00
2018-05-25T11:19:47.409Z,87104.00
2018-05-25T11:20:47.666Z,86176.00
2018-05-25T11:21:47.922Z,84640.00
2018-05-25T11:22:48.177Z,78624.00
2018-05-25T11:23:48.446Z,84032.00
2018-05-25T11:24:48.695Z,87136.00
2018-05-25T11:25:48.952Z,87904.00
2018-05-25T11:26:49.204Z,56992.00
2018-05-25T11:27:49.460Z,53792.00
2018-05-25T11:28:49.716Z,83008.00
2018-05-25T11:29:50.000Z,87392.00
2018-05-25T11:30:50.282Z,86176.00
2018-05-25T11:31:50.532Z,30944.00
2018-05-25T11:32:50.791Z,31168.00
2018-05-25T11:33:51.054Z,32448.00
2018-05-25T11:34:51.312Z,91520.00
2018-05-25T11:35:51.566Z,90592.00
2018-05-25T11:36:51.822Z,68160.00
2018-05-25T11:37:52.079Z,75392.00
2018-05-25T11:38:52.336Z,69600.00
2018-05-25T11:39:52.591Z,85120.00
2018-05-25T11:40:52.849Z,32480.00
2018-05-25T11:41:53.103Z,29184.00
2018-05-25T11:42:53.362Z,28352.00
2018-05-25T11:43:53.617Z,28256.00
2018-05-25T11:44:53.875Z,27936.00
2018-05-25T11:45:54.129Z,28000.00
2018-05-25T11:46:54.389Z,34752.00
2018-05-25T11:47:54.645Z,91776.00
2018-05-25T11:48:54.901Z,88960.00
2018-05-25T11:49:55.157Z,88352.00
2018-05-25T11:50:55.414Z,91360.00
2018-05-25T11:51:55.670Z,90848.00
2018-05-25T11:52:55.932Z,88480.00
2018-05-25T11:53:56.181Z,87936.00
2018-05-25T11:54:56.442Z,91200.00
2018-05-25T11:55:56.691Z,92928.00
2018-05-25T11:56:56.949Z,93088.00
2018-05-25T11:57:57.203Z,93440.00
2018-05-25T11:58:57.456Z,91424.00
2018-05-25T11:59:57.715Z,94880.00
2018-05-25T12:00:57.974Z,96448.00
2018-05-25T12:01:58.232Z,94592.00
2018-05-25T12:02:58.554Z,91136.00
2018-05-25T12:03:58.814Z,91840.00
2018-05-25T12:04:59.072Z,94112.00
2018-05-25T12:05:59.330Z,96224.00
2018-05-25T12:06:59.588Z,30848.00
2018-05-25T12:07:59.847Z,26848.00
2018-05-25T12:09:00.106Z,25696.00
2018-05-25T12:10:00.408Z,25056.00
2018-05-25T12:11:00.665Z,24672.00
2018-05-25T12:12:00.921Z,24160.00
2018-05-25T12:13:01.170Z,23840.00
2018-05-25T12:14:01.429Z,23392.00
2018-05-25T12:15:01.686Z,23552.00
2018-05-25T12:16:01.945Z,24384.00